createdAt,value
2022-10-20T00:00:43.967Z,9.40
2022-10-20T00:05:47.254Z,9.20
2022-10-20T00:10:57.998Z,9.30
2022-10-20T00:16:01.703Z,9.10
2022-10-20T00:21:08.507Z,9.10
2022-10-20T00:26:15.654Z,9.00
2022-10-20T00:31:20.113Z,9.00
2022-10-20T00:36:24.779Z,9.00
2022-10-20T00:41:30.815Z,8.90
2022-10-20T00:46:37.874Z,8.80
2022-10-20T00:51:41.302Z,8.70
2022-10-20T00:56:48.510Z,8.60
2022-10-20T01:01:52.113Z,8.60
2022-10-20T01:06:55.447Z,8.60
2022-10-20T01:12:08.622Z,8.60
2022-10-20T01:17:20.470Z,8.80
2022-10-20T01:22:35.847Z,8.90
2022-10-20T01:27:43.456Z,9.10
2022-10-20T01:33:13.201Z,9.30
2022-10-20T01:38:28.600Z,9.40
2022-10-20T01:43:36.825Z,9.40
2022-10-20T01:48:44.382Z,9.40
2022-10-20T01:53:47.717Z,9.40
2022-10-20T01:59:22.944Z,9.30
2022-10-20T02:04:35.150Z,9.20
2022-10-20T02:09:42.923Z,9.10
2022-10-20T02:14:50.423Z,9.10
2022-10-20T02:19:54.942Z,9.00
2022-10-20T02:24:58.243Z,9.00
2022-10-20T02:30:06.557Z,9.00
2022-10-20T02:35:14.443Z,9.00
2022-10-20T02:40:17.879Z,8.90
2022-10-20T02:45:22.724Z,8.90
2022-10-20T02:50:27.057Z,8.90
2022-10-20T02:55:30.342Z,8.90
2022-10-20T03:00:38.509Z,8.90
2022-10-20T03:05:44.512Z,8.90
2022-10-20T03:10:49.027Z,8.90
2022-10-20T03:15:53.644Z,8.90
2022-10-20T03:20:56.926Z,8.90
2022-10-20T03:26:03.834Z,8.90
2022-10-20T03:31:09.198Z,8.90
2022-10-20T03:36:12.899Z,8.80
2022-10-20T03:41:16.261Z,8.80
2022-10-20T03:46:20.915Z,8.80
2022-10-20T03:51:24.443Z,8.70
2022-10-20T03:56:27.785Z,8.70
2022-10-20T04:01:34.276Z,8.70
2022-10-20T04:06:37.897Z,8.70
2022-10-20T04:11:41.247Z,8.60
2022-10-20T04:16:45.943Z,8.70
2022-10-20T04:21:49.308Z,8.70
2022-10-20T04:26:52.842Z,8.70
2022-10-20T04:31:57.649Z,8.70
2022-10-20T04:37:00.857Z,8.80
2022-10-20T04:42:04.021Z,8.70
2022-10-20T04:47:08.632Z,8.70
2022-10-20T04:52:12.002Z,8.70
2022-10-20T04:57:15.625Z,8.70
2022-10-20T05:02:20.343Z,8.70
2022-10-20T05:07:26.331Z,8.70
2022-10-20T05:12:33.825Z,8.60
2022-10-20T05:17:38.929Z,8.60
2022-10-20T05:22:42.263Z,8.50
2022-10-20T05:27:45.468Z,8.50
2022-10-20T05:32:50.009Z,8.50
2022-10-20T05:37:53.831Z,8.40
2022-10-20T05:42:57.920Z,8.50
2022-10-20T05:48:02.663Z,8.60
2022-10-20T05:53:06.040Z,8.60
2022-10-20T05:58:09.281Z,8.50
2022-10-20T06:03:16.176Z,8.50
2022-10-20T06:08:22.406Z,8.50
2022-10-20T06:13:25.774Z,8.60
2022-10-20T06:18:30.448Z,8.60
2022-10-20T06:23:33.728Z,8.80
2022-10-20T06:28:38.721Z,9.00
2022-10-20T06:33:44.051Z,9.20
2022-10-20T06:38:48.481Z,9.40
2022-10-20T06:43:55.216Z,9.50
2022-10-20T06:49:01.775Z,9.50
2022-10-20T06:54:05.840Z,9.60
2022-10-20T06:59:09.156Z,9.80
2022-10-20T07:04:16.243Z,10.00
2022-10-20T07:09:20.850Z,10.30
2022-10-20T07:14:24.088Z,10.60
2022-10-20T07:19:28.969Z,10.90
2022-10-20T07:24:32.297Z,11.20
2022-10-20T07:29:35.550Z,11.50
2022-10-20T07:34:40.269Z,11.80
2022-10-20T07:39:43.604Z,12.10
2022-10-20T07:44:46.859Z,12.60
2022-10-20T07:49:51.608Z,13.00
2022-10-20T07:55:06.267Z,13.20
2022-10-20T08:00:19.138Z,13.40
2022-10-20T08:05:23.901Z,14.20
2022-10-20T08:10:27.257Z,14.70
2022-10-20T08:15:31.638Z,15.00
2022-10-20T08:20:42.617Z,15.10
2022-10-20T08:25:47.746Z,15.20
2022-10-20T08:30:51.067Z,15.50
2022-10-20T08:35:55.959Z,16.90
2022-10-20T08:41:00.590Z,17.80
2022-10-20T08:46:04.084Z,17.90
2022-10-20T08:51:13.988Z,18.10
2022-10-20T08:56:18.269Z,18.10
2022-10-20T09:01:24.240Z,17.30
2022-10-20T09:06:29.078Z,17.10
2022-10-20T09:11:40.377Z,18.40
2022-10-20T09:16:59.712Z,19.20
2022-10-20T09:22:08.312Z,19.60
2022-10-20T09:27:32.947Z,19.80
2022-10-20T09:32:52.653Z,19.40
2022-10-20T09:38:02.824Z,18.90
2022-10-20T09:43:11.886Z,18.10
2022-10-20T09:48:23.386Z,17.40
2022-10-20T09:53:30.712Z,17.00
2022-10-20T09:58:38.064Z,16.90
2022-10-20T10:03:44.958Z,17.20
2022-10-20T10:08:49.583Z,17.70
2022-10-20T10:13:54.162Z,18.10
2022-10-20T10:19:02.166Z,18.30
2022-10-20T10:24:28.178Z,19.00
2022-10-20T10:29:34.680Z,19.40
2022-10-20T10:34:49.136Z,18.80
2022-10-20T10:39:53.762Z,18.80
2022-10-20T10:45:03.981Z,18.30
2022-10-20T10:50:27.276Z,17.90
2022-10-20T10:55:54.384Z,17.80
2022-10-20T11:01:04.324Z,17.80
2022-10-20T11:06:19.978Z,17.70
2022-10-20T11:11:38.024Z,17.90
2022-10-20T11:16:47.325Z,18.10
2022-10-20T11:22:05.054Z,18.30
2022-10-20T11:27:14.193Z,18.60
2022-10-20T11:32:27.941Z,18.90
2022-10-20T11:37:37.901Z,18.80
2022-10-20T11:42:50.587Z,18.90
2022-10-20T11:48:01.659Z,18.60
2022-10-20T11:53:35.008Z,18.00
2022-10-20T11:59:05.973Z,17.70
2022-10-20T12:04:41.918Z,17.20
2022-10-20T12:10:02.586Z,17.40
2022-10-20T12:15:22.665Z,17.80
2022-10-20T12:20:51.146Z,17.90
2022-10-20T12:25:54.433Z,18.00
2022-10-20T12:31:01.016Z,18.10
2022-10-20T12:36:30.652Z,17.80
2022-10-20T12:41:36.537Z,17.70
2022-10-20T12:46:47.733Z,17.60
2022-10-20T12:51:54.843Z,17.50
2022-10-20T12:57:02.686Z,17.60
2022-10-20T13:02:44.091Z,17.70
2022-10-20T13:08:35.459Z,17.70
2022-10-20T13:13:52.373Z,17.60
2022-10-20T13:18:58.938Z,17.80
2022-10-20T13:24:14.033Z,17.80
2022-10-20T13:29:23.490Z,18.00
2022-10-20T13:34:33.934Z,18.10
2022-10-20T13:39:45.091Z,18.30
2022-10-20T13:44:59.699Z,18.60
2022-10-20T13:50:10.911Z,18.80
2022-10-20T13:55:19.616Z,18.70
2022-10-20T14:00:28.637Z,18.40
2022-10-20T14:05:40.933Z,18.30
2022-10-20T14:10:50.269Z,18.10
2022-10-20T14:15:55.940Z,17.90
2022-10-20T14:21:03.129Z,17.70
2022-10-20T14:26:09.083Z,17.60
2022-10-20T14:31:17.588Z,17.50
2022-10-20T14:36:28.635Z,17.40
2022-10-20T14:41:34.890Z,17.30
2022-10-20T14:46:41.098Z,17.30
2022-10-20T14:51:54.821Z,17.10
2022-10-20T14:56:59.694Z,16.90
2022-10-20T15:02:09.408Z,16.80
2022-10-20T15:07:18.320Z,16.70
2022-10-20T15:12:25.789Z,16.70
2022-10-20T15:17:35.607Z,16.60
2022-10-20T15:22:40.650Z,16.50
2022-10-20T15:27:44.115Z,16.40
2022-10-20T15:32:47.815Z,16.30
2022-10-20T15:37:53.816Z,16.10
2022-10-20T15:42:57.122Z,15.90
2022-10-20T15:48:00.554Z,15.80
2022-10-20T15:53:08.815Z,15.80
2022-10-20T15:58:13.946Z,15.70
2022-10-20T16:03:19.165Z,15.60
2022-10-20T16:08:23.898Z,15.50
2022-10-20T16:13:27.227Z,15.50
2022-10-20T16:18:30.533Z,15.40
2022-10-20T16:23:40.574Z,15.30
2022-10-20T16:28:47.318Z,15.30
2022-10-20T16:33:50.581Z,15.30
2022-10-20T16:38:57.988Z,15.20
2022-10-20T16:44:01.488Z,15.10
2022-10-20T16:49:04.882Z,15.00
2022-10-20T16:54:09.719Z,15.00
2022-10-20T16:59:13.234Z,15.10
2022-10-20T17:04:16.537Z,15.10
2022-10-20T17:09:21.297Z,15.10
2022-10-20T17:14:24.604Z,15.00
2022-10-20T17:19:28.059Z,14.90
2022-10-20T17:24:32.723Z,14.80
2022-10-20T17:29:36.184Z,14.80
2022-10-20T17:34:39.424Z,14.70
2022-10-20T17:39:44.113Z,14.70
2022-10-20T17:45:08.208Z,14.70
2022-10-20T17:50:12.150Z,14.60
2022-10-20T17:55:17.584Z,14.50
2022-10-20T18:00:26.979Z,14.50
2022-10-20T18:05:41.060Z,14.50
2022-10-20T18:10:45.809Z,14.40
2022-10-20T18:15:49.171Z,14.40
2022-10-20T18:20:56.317Z,14.40
2022-10-20T18:26:07.671Z,14.40
2022-10-20T18:31:17.488Z,14.40
2022-10-20T18:36:21.424Z,14.30
2022-10-20T18:41:28.560Z,14.30
2022-10-20T18:46:34.040Z,14.30
2022-10-20T18:51:38.446Z,14.30
2022-10-20T18:56:43.821Z,14.30
2022-10-20T19:01:48.438Z,14.30
2022-10-20T19:06:53.324Z,14.30
2022-10-20T19:11:58.154Z,14.20
2022-10-20T19:17:01.379Z,14.20
2022-10-20T19:22:05.210Z,14.10
2022-10-20T19:27:27.191Z,14.10
2022-10-20T19:32:30.863Z,14.10
2022-10-20T19:37:34.314Z,14.10
2022-10-20T19:42:39.676Z,14.20
2022-10-20T19:47:43.296Z,14.10
2022-10-20T19:52:46.562Z,14.10
2022-10-20T19:57:51.287Z,14.10
2022-10-20T20:02:54.660Z,14.10
2022-10-20T20:07:57.945Z,14.10
2022-10-20T20:13:03.291Z,14.00
2022-10-20T20:18:06.602Z,14.00
2022-10-20T20:23:10.293Z,14.00
2022-10-20T20:28:15.029Z,14.00
2022-10-20T20:33:18.422Z,14.00
2022-10-20T20:38:21.670Z,13.90
2022-10-20T20:43:26.425Z,13.90
2022-10-20T20:48:29.919Z,13.80
2022-10-20T20:58:38.983Z,13.80
2022-10-20T21:03:43.558Z,13.90
2022-10-20T21:08:48.746Z,13.80
2022-10-20T21:13:55.837Z,13.80
2022-10-20T21:19:01.814Z,13.70
2022-10-20T21:24:06.882Z,13.60
2022-10-20T21:29:14.773Z,13.50
2022-10-20T21:34:18.136Z,13.40
2022-10-20T21:39:21.506Z,13.30
2022-10-20T21:44:26.224Z,13.20
2022-10-20T21:49:29.505Z,13.10
2022-10-20T21:54:32.683Z,12.90
2022-10-20T21:59:37.258Z,12.80
2022-10-20T22:04:40.582Z,12.80
2022-10-20T22:09:43.917Z,12.80
2022-10-20T22:14:48.682Z,12.80
2022-10-20T22:19:51.935Z,12.90
2022-10-20T22:24:55.284Z,12.90
2022-10-20T22:29:59.953Z,12.90
2022-10-20T22:35:03.198Z,13.00
2022-10-20T22:40:07.575Z,13.00
2022-10-20T22:45:13.066Z,12.90
2022-10-20T22:50:16.648Z,12.90
2022-10-20T22:55:22.872Z,12.80
2022-10-20T23:00:27.528Z,12.80
2022-10-20T23:05:30.733Z,12.80
2022-10-20T23:10:33.973Z,12.60
2022-10-20T23:15:38.605Z,12.40
2022-10-20T23:20:42.927Z,12.20
2022-10-20T23:25:50.814Z,12.10
2022-10-20T23:31:07.646Z,12.20
2022-10-20T23:36:11.731Z,12.40
2022-10-20T23:41:15.523Z,12.50
2022-10-20T23:46:20.169Z,12.40
2022-10-20T23:51:23.429Z,12.30
2022-10-20T23:56:26.705Z,12.20
